createdAt,value
2018-04-08T00:02:03.636Z,95610.15
2018-04-08T00:04:31.686Z,95611.66
2018-04-08T00:06:56.951Z,95603.45
2018-04-08T00:09:26.630Z,95605.22
2018-04-08T00:11:53.257Z,95608.88
2018-04-08T00:14:19.909Z,95606.97
2018-04-08T00:16:46.571Z,95612.59
2018-04-08T00:19:13.166Z,95606.96
2018-04-08T00:21:39.802Z,95606.05
2018-04-08T00:24:06.438Z,95611.73
2018-04-08T00:26:33.151Z,95624.04
2018-04-08T00:28:59.888Z,95618.74
2018-04-08T00:31:26.542Z,95622.05
2018-04-08T00:33:53.300Z,95620.03
2018-04-08T00:36:19.938Z,95617.50
2018-04-08T00:38:46.551Z,95618.25
2018-04-08T00:41:14.540Z,95619.79
2018-04-08T00:43:39.857Z,95620.13
2018-04-08T00:46:06.522Z,95617.97
2018-04-08T00:48:33.127Z,95621.86
2018-04-08T00:50:59.793Z,95617.85
2018-04-08T00:53:26.425Z,95622.23
2018-04-08T00:55:53.093Z,95620.08
2018-04-08T00:58:19.798Z,95624.72
2018-04-08T01:00:46.367Z,95620.80
2018-04-08T01:03:15.512Z,95621.94
2018-04-08T01:05:42.176Z,95630.38
2018-04-08T01:08:08.981Z,95624.24
2018-04-08T01:10:38.540Z,95629.00
2018-04-08T01:13:05.233Z,95623.34
2018-04-08T01:15:31.932Z,95626.23
2018-04-08T01:17:58.890Z,95626.23
2018-04-08T01:20:25.555Z,95628.20
2018-04-08T01:22:52.226Z,95619.77
2018-04-08T01:25:20.768Z,95617.78
2018-04-08T01:27:50.416Z,95613.63
2018-04-08T01:30:17.622Z,95613.48
2018-04-08T01:32:44.891Z,95606.73
2018-04-08T01:35:11.561Z,95613.99
2018-04-08T01:37:38.197Z,95611.00
2018-04-08T01:40:04.933Z,95612.06
2018-04-08T01:42:31.537Z,95606.57
2018-04-08T01:44:58.236Z,95605.39
2018-04-08T01:47:24.872Z,95601.78
2018-04-08T01:49:51.471Z,95603.77
2018-04-08T01:52:19.551Z,95607.03
2018-04-08T01:54:44.760Z,95609.77
2018-04-08T01:57:11.545Z,95607.25
2018-04-08T01:59:39.560Z,95606.63
2018-04-08T02:02:04.843Z,95607.16
2018-04-08T02:04:31.513Z,95605.92
2018-04-08T02:07:00.819Z,95600.34
2018-04-08T02:09:27.425Z,95599.18
2018-04-08T02:11:54.093Z,95597.55
2018-04-08T02:14:20.698Z,95599.72
2018-04-08T02:16:50.023Z,95595.78
2018-04-08T02:19:16.841Z,95601.72
2018-04-08T02:21:43.468Z,95597.56
2018-04-08T02:24:10.114Z,95603.47
2018-04-08T02:26:36.789Z,95599.02
2018-04-08T02:29:06.330Z,95592.98
2018-04-08T02:31:33.067Z,95593.77
2018-04-08T02:33:59.784Z,95595.74
2018-04-08T02:36:26.410Z,95590.15
2018-04-08T02:38:53.050Z,95594.30
2018-04-08T02:41:19.693Z,95593.84
2018-04-08T02:43:46.320Z,95592.61
2018-04-08T02:46:12.997Z,95593.59
2018-04-08T02:48:40.871Z,95593.94
2018-04-08T02:51:06.312Z,95589.83
2018-04-08T02:53:32.946Z,95594.08
2018-04-08T02:55:59.612Z,95590.17
2018-04-08T02:58:26.251Z,95596.19
2018-04-08T03:00:52.862Z,95604.58
2018-04-08T03:03:21.326Z,95593.88
2018-04-08T03:05:46.234Z,95591.59
2018-04-08T03:08:12.871Z,95593.11
2018-04-08T03:10:39.540Z,95588.37
2018-04-08T03:13:08.435Z,95594.90
2018-04-08T03:15:32.901Z,95597.68
2018-04-08T03:17:59.494Z,95598.12
2018-04-08T03:20:26.137Z,95600.64
2018-04-08T03:22:52.902Z,95598.00
2018-04-08T03:25:19.517Z,95598.41
2018-04-08T03:27:46.270Z,95603.65
2018-04-08T03:30:12.897Z,95601.63
2018-04-08T03:32:39.561Z,95598.22
2018-04-08T03:35:06.254Z,95600.23
2018-04-08T03:37:32.881Z,95602.33
2018-04-08T03:39:59.508Z,95599.69
2018-04-08T03:42:26.217Z,95601.06
2018-04-08T03:44:52.886Z,95605.53
2018-04-08T03:47:22.559Z,95602.38
2018-04-08T03:49:49.278Z,95597.92
2018-04-08T03:52:15.972Z,95600.69
2018-04-08T03:54:44.357Z,95600.70
2018-04-08T03:57:09.236Z,95597.08
2018-04-08T03:59:35.861Z,95603.97
2018-04-08T04:02:02.594Z,95606.47
2018-04-08T04:04:29.194Z,95610.61
2018-04-08T04:06:55.846Z,95614.34
2018-04-08T04:09:22.518Z,95612.36
2018-04-08T04:11:49.191Z,95617.28
2018-04-08T04:14:17.164Z,95619.13
2018-04-08T04:16:42.495Z,95620.29
2018-04-08T04:19:09.201Z,95622.88
2018-04-08T04:21:35.802Z,95617.86
2018-04-08T04:24:02.560Z,95622.17
2018-04-08T04:26:29.247Z,95620.55
2018-04-08T04:28:55.967Z,95614.98
2018-04-08T04:31:22.658Z,95626.70
2018-04-08T04:33:49.293Z,95620.50
2018-04-08T04:36:17.293Z,95625.37
2018-04-08T04:38:42.626Z,95628.36
2018-04-08T04:41:09.318Z,95624.67
2018-04-08T04:43:36.092Z,95622.20
2018-04-08T04:46:02.733Z,95626.13
2018-04-08T04:48:29.335Z,95628.30
2018-04-08T04:50:56.058Z,95632.65
2018-04-08T04:53:22.657Z,95627.68
2018-04-08T04:55:49.328Z,95633.14
2018-04-08T04:58:15.924Z,95626.61
2018-04-08T05:00:43.961Z,95634.94
2018-04-08T05:03:09.234Z,95635.10
2018-04-08T05:05:35.919Z,95640.80
2018-04-08T05:08:02.555Z,95642.19
2018-04-08T05:10:29.290Z,95640.72
2018-04-08T05:12:55.956Z,95640.27
2018-04-08T05:15:22.609Z,95641.84
2018-04-08T05:17:49.329Z,95643.64
2018-04-08T05:20:16.081Z,95645.56
2018-04-08T05:22:42.733Z,95641.95
2018-04-08T05:25:09.329Z,95640.63
2018-04-08T05:27:36.000Z,95642.80
2018-04-08T05:30:02.663Z,95639.08
2018-04-08T05:32:31.515Z,95644.40
2018-04-08T05:34:58.262Z,95647.56
2018-04-08T05:37:24.899Z,95646.33
2018-04-08T05:39:51.564Z,95646.52
2018-04-08T05:42:18.303Z,95653.22
2018-04-08T05:44:44.937Z,95652.88
2018-04-08T05:47:11.579Z,95652.30
2018-04-08T05:49:38.247Z,95649.78
2018-04-08T05:52:04.962Z,95647.91
2018-04-08T05:54:31.567Z,95652.98
2018-04-08T05:56:58.213Z,95656.64
2018-04-08T05:59:26.695Z,95659.18
2018-04-08T06:01:52.838Z,95656.44
2018-04-08T06:04:18.190Z,95658.21
2018-04-08T06:06:46.173Z,95660.74
2018-04-08T06:09:11.574Z,95662.02
2018-04-08T06:11:41.471Z,95666.83
2018-04-08T06:14:08.136Z,95665.69
2018-04-08T06:16:36.561Z,95666.20
2018-04-08T06:19:01.887Z,95661.03
2018-04-08T06:21:28.510Z,95665.33
2018-04-08T06:23:56.196Z,95664.08
2018-04-08T06:26:21.775Z,95665.14
2018-04-08T06:28:48.415Z,95670.05
2018-04-08T06:31:15.128Z,95672.31
2018-04-08T06:33:41.743Z,95665.13
2018-04-08T06:36:08.401Z,95663.77
2018-04-08T06:38:35.062Z,95667.30
2018-04-08T06:41:01.768Z,95662.88
2018-04-08T06:43:28.454Z,95667.93
2018-04-08T06:45:55.201Z,95666.92
2018-04-08T06:48:21.942Z,95664.38
2018-04-08T06:50:48.657Z,95666.41
2018-04-08T06:53:15.327Z,95674.47
2018-04-08T06:55:43.095Z,95675.25
2018-04-08T06:58:08.638Z,95674.23
2018-04-08T07:00:35.376Z,95674.09
2018-04-08T07:03:03.038Z,95665.27
2018-04-08T07:05:30.152Z,95666.02
2018-04-08T07:07:58.646Z,95671.70
2018-04-08T07:10:26.235Z,95670.30
2018-04-08T07:12:53.004Z,95670.92
2018-04-08T07:15:19.607Z,95672.58
2018-04-08T07:17:46.304Z,95667.66
2018-04-08T07:20:13.022Z,95667.89
2018-04-08T07:22:39.656Z,95671.43
2018-04-08T07:25:06.309Z,95670.94
2018-04-08T07:27:33.024Z,95663.74
2018-04-08T07:29:59.704Z,95662.20
2018-04-08T07:32:26.307Z,95665.50
2018-04-08T07:34:53.056Z,95667.38
2018-04-08T07:37:19.664Z,95672.55
2018-04-08T07:39:46.332Z,95668.77
2018-04-08T07:42:13.015Z,95664.73
2018-04-08T07:44:39.782Z,95664.86
2018-04-08T07:47:06.406Z,95659.30
2018-04-08T07:49:33.047Z,95654.89
2018-04-08T07:51:59.796Z,95656.14
2018-04-08T07:54:26.516Z,95645.66
2018-04-08T07:56:54.737Z,95650.34
2018-04-08T07:59:19.802Z,95650.84
2018-04-08T08:01:46.432Z,95651.61
2018-04-08T08:04:13.081Z,95653.62
2018-04-08T08:06:39.845Z,95639.98
2018-04-08T08:09:06.780Z,95645.80
2018-04-08T08:11:33.444Z,95639.98
2018-04-08T08:14:00.186Z,95639.13
2018-04-08T08:16:26.943Z,95643.14
2018-04-08T08:18:53.588Z,95644.78
2018-04-08T08:21:20.333Z,95640.61
2018-04-08T08:23:46.968Z,95644.68
2018-04-08T08:26:13.597Z,95645.05
2018-04-08T08:28:40.415Z,95641.77
2018-04-08T08:31:07.102Z,95644.17
2018-04-08T08:33:33.735Z,95632.79
2018-04-08T08:36:00.396Z,95631.80
2018-04-08T08:38:27.112Z,95627.98
2018-04-08T08:40:56.769Z,95622.17
2018-04-08T08:43:23.406Z,95626.34
2018-04-08T08:45:50.128Z,95623.19
2018-04-08T08:48:16.769Z,95620.66
2018-04-08T08:50:43.729Z,95619.41
2018-04-08T08:53:10.361Z,95611.97
2018-04-08T08:55:37.088Z,95611.20
2018-04-08T08:58:03.728Z,95607.91
2018-04-08T09:00:30.368Z,95602.25
2018-04-08T09:02:57.011Z,95605.41
2018-04-08T09:05:23.706Z,95602.35
2018-04-08T09:07:50.379Z,95598.31
2018-04-08T09:10:18.142Z,95599.95
2018-04-08T09:12:43.867Z,95588.73
2018-04-08T09:15:10.540Z,95585.08
2018-04-08T09:17:37.168Z,95589.59
2018-04-08T09:20:04.196Z,95590.09
2018-04-08T09:22:30.911Z,95584.59
2018-04-08T09:25:01.519Z,95583.08
2018-04-08T09:27:26.861Z,95586.99
2018-04-08T09:29:53.599Z,95581.70
2018-04-08T09:32:20.223Z,95583.84
2018-04-08T09:34:46.858Z,95578.67
2018-04-08T09:37:13.652Z,95574.36
2018-04-08T09:39:40.263Z,95567.81
2018-04-08T09:42:08.909Z,95568.06
2018-04-08T09:44:35.584Z,95565.52
2018-04-08T09:47:02.260Z,95558.34
2018-04-08T09:49:28.977Z,95553.14
2018-04-08T09:51:55.575Z,95546.97
2018-04-08T09:54:22.263Z,95550.50
2018-04-08T09:56:48.893Z,95549.00
2018-04-08T09:59:15.554Z,95546.08
2018-04-08T10:01:42.166Z,95543.42
2018-04-08T10:04:08.807Z,95540.50
2018-04-08T10:06:36.634Z,95536.98
2018-04-08T10:09:02.093Z,95539.64
2018-04-08T10:11:28.813Z,95533.95
2018-04-08T10:13:55.458Z,95538.88
2018-04-08T10:16:22.084Z,95525.75
2018-04-08T10:18:48.693Z,95529.02
2018-04-08T10:21:15.457Z,95526.74
2018-04-08T10:23:42.055Z,95526.63
2018-04-08T10:26:11.551Z,95528.77
2018-04-08T10:28:38.189Z,95518.39
2018-04-08T10:31:04.872Z,95509.69
2018-04-08T10:33:31.449Z,95512.84
2018-04-08T10:35:58.088Z,95514.22
2018-04-08T10:38:24.824Z,95511.31
2018-04-08T10:40:51.568Z,95508.80
2018-04-08T10:43:21.177Z,95504.37
2018-04-08T10:45:47.944Z,95500.85
2018-04-08T10:48:14.712Z,95496.41
2018-04-08T10:50:41.315Z,95497.80
2018-04-08T10:53:07.953Z,95490.58
2018-04-08T10:55:34.634Z,95492.73
2018-04-08T10:58:01.235Z,95486.94
2018-04-08T11:00:27.903Z,95483.77
2018-04-08T11:02:54.509Z,95478.97
2018-04-08T11:05:21.286Z,95476.19
2018-04-08T11:07:47.919Z,95487.18
2018-04-08T11:10:14.560Z,95482.36
2018-04-08T11:12:41.166Z,95471.12
2018-04-08T11:15:07.839Z,95478.58
2018-04-08T11:17:34.472Z,95467.56
2018-04-08T11:20:01.181Z,95464.66
2018-04-08T11:22:28.162Z,95458.09
2018-04-08T11:24:54.792Z,95454.02
2018-04-08T11:27:22.012Z,95453.75
2018-04-08T11:29:48.719Z,95453.13
2018-04-08T11:32:15.317Z,95455.38
2018-04-08T11:34:44.711Z,95449.46
2018-04-08T11:37:11.374Z,95449.81
2018-04-08T11:39:38.084Z,95450.42
2018-04-08T11:42:04.795Z,95444.86
2018-04-08T11:44:31.386Z,95439.69
2018-04-08T11:46:58.120Z,95450.91
2018-04-08T11:49:24.722Z,95440.45
2018-04-08T11:51:51.392Z,95436.63
2018-04-08T11:54:18.030Z,95437.39
2018-04-08T11:59:11.312Z,95432.84
2018-04-08T12:01:37.913Z,95424.86
2018-04-08T12:04:04.554Z,95419.58
2018-04-08T12:06:31.291Z,95417.41
2018-04-08T12:08:57.928Z,95411.47
2018-04-08T12:11:27.528Z,95411.34
2018-04-08T12:13:54.190Z,95414.47
2018-04-08T12:16:20.860Z,95403.73
2018-04-08T12:18:47.508Z,95404.90
2018-04-08T12:21:14.138Z,95408.44
2018-04-08T12:23:41.080Z,95407.80
2018-04-08T12:26:07.727Z,95404.75
2018-04-08T12:28:34.384Z,95400.45
2018-04-08T12:31:01.080Z,95395.24
2018-04-08T12:33:27.688Z,95391.95
2018-04-08T12:35:54.362Z,95392.46
2018-04-08T12:38:20.967Z,95391.45
2018-04-08T12:40:47.604Z,95390.22
2018-04-08T12:43:14.345Z,95388.02
2018-04-08T12:45:40.987Z,95383.20
2018-04-08T12:48:07.653Z,95378.66
2018-04-08T12:50:37.195Z,95373.10
2018-04-08T12:53:03.882Z,95373.33
2018-04-08T12:55:31.732Z,95367.55
2018-04-08T12:57:57.188Z,95364.26
2018-04-08T13:00:23.838Z,95359.96
2018-04-08T13:02:50.506Z,95362.36
2018-04-08T13:05:19.099Z,95365.74
2018-04-08T13:07:43.829Z,95362.96
2018-04-08T13:10:11.784Z,95360.19
2018-04-08T13:12:37.083Z,95363.22
2018-04-08T13:15:05.142Z,95361.19
2018-04-08T13:17:30.420Z,95365.08
2018-04-08T13:19:59.103Z,95360.25
2018-04-08T13:22:25.067Z,95361.13
2018-04-08T13:24:50.332Z,95359.74
2018-04-08T13:27:18.498Z,95351.91
2018-04-08T13:29:43.743Z,95362.11
2018-04-08T13:32:10.498Z,95357.94
2018-04-08T13:34:37.171Z,95355.44
2018-04-08T13:37:03.808Z,95351.75
2018-04-08T13:39:30.496Z,95359.08
2018-04-08T13:41:57.122Z,95362.88
2018-04-08T13:44:23.760Z,95356.45
2018-04-08T13:46:52.672Z,95358.23
2018-04-08T13:49:19.304Z,95355.57
2018-04-08T13:51:46.000Z,95356.30
2018-04-08T13:54:12.661Z,95350.73
2018-04-08T13:56:39.337Z,95355.92
2018-04-08T13:59:09.031Z,95354.69
2018-04-08T14:01:35.682Z,95348.46
2018-04-08T14:04:02.406Z,95356.05
2018-04-08T14:06:32.074Z,95349.60
2018-04-08T14:09:00.589Z,95351.37
2018-04-08T14:11:29.985Z,95351.27
2018-04-08T14:13:51.987Z,95351.53
2018-04-08T14:16:18.771Z,95345.59
2018-04-08T14:18:48.338Z,95345.33
2018-04-08T14:21:14.987Z,95345.81
2018-04-08T14:23:41.628Z,95342.55
2018-04-08T14:26:08.291Z,95343.66
2018-04-08T14:28:37.351Z,95338.64
2018-04-08T14:31:01.536Z,95345.97
2018-04-08T14:33:28.172Z,95340.03
2018-04-08T14:35:54.810Z,95345.59
2018-04-08T14:38:21.469Z,95337.09
2018-04-08T14:40:48.160Z,95340.28
2018-04-08T14:43:14.891Z,95336.17
2018-04-08T14:45:41.632Z,95341.20
2018-04-08T14:48:08.279Z,95332.00
2018-04-08T14:50:36.278Z,95327.30
2018-04-08T14:53:03.394Z,95330.77
2018-04-08T14:55:29.643Z,95333.02
2018-04-08T14:57:54.856Z,95336.87
2018-04-08T15:00:21.562Z,95335.03
2018-04-08T15:02:48.195Z,95337.56
2018-04-08T15:05:14.835Z,95338.86
2018-04-08T15:07:41.467Z,95336.59
2018-04-08T15:10:08.194Z,95341.00
2018-04-08T15:12:34.793Z,95344.42
2018-04-08T15:15:01.466Z,95341.42
2018-04-08T15:17:28.073Z,95345.18
2018-04-08T15:19:54.811Z,95341.39
2018-04-08T15:22:21.454Z,95344.30
2018-04-08T15:24:48.050Z,95344.67
2018-04-08T15:27:17.636Z,95339.78
2018-04-08T15:29:48.459Z,95333.33
2018-04-08T15:32:13.610Z,95343.19
2018-04-08T15:34:40.260Z,95345.20
2018-04-08T15:37:06.909Z,95342.05
2018-04-08T15:39:33.537Z,95343.22
2018-04-08T15:42:00.196Z,95343.72
2018-04-08T15:44:26.800Z,95334.25
2018-04-08T15:46:53.458Z,95344.35
2018-04-08T15:49:20.228Z,95345.88
2018-04-08T15:51:46.837Z,95349.78
2018-04-08T15:54:13.504Z,95352.31
2018-04-08T15:56:42.761Z,95351.30
2018-04-08T15:59:09.393Z,95353.20
2018-04-08T16:01:36.180Z,95352.75
2018-04-08T16:04:02.816Z,95361.12
2018-04-08T16:06:29.454Z,95353.51
2018-04-08T16:08:56.093Z,95353.00
2018-04-08T16:11:22.733Z,95358.84
2018-04-08T16:13:49.340Z,95352.78
2018-04-08T16:16:16.038Z,95356.34
2018-04-08T16:18:42.683Z,95353.34
2018-04-08T16:21:09.280Z,95352.89
2018-04-08T16:23:40.447Z,95354.41
2018-04-08T16:26:05.959Z,95354.17
2018-04-08T16:28:35.479Z,95360.84
2018-04-08T16:31:02.107Z,95367.94
2018-04-08T16:33:28.793Z,95367.56
2018-04-08T16:35:56.571Z,95362.01
2018-04-08T16:38:24.322Z,95369.23
2018-04-08T16:40:49.804Z,95365.95
2018-04-08T16:43:16.495Z,95367.33
2018-04-08T16:45:44.583Z,95366.73
2018-04-08T16:48:09.799Z,95369.50
2018-04-08T16:50:36.478Z,95367.51
2018-04-08T16:53:03.154Z,95366.50
2018-04-08T16:55:29.758Z,95367.36
2018-04-08T16:57:57.860Z,95369.25
2018-04-08T17:00:23.133Z,95373.65
2018-04-08T17:02:49.771Z,95366.50
2018-04-08T17:05:19.382Z,95367.86
2018-04-08T17:07:46.424Z,95368.62
2018-04-08T17:10:13.052Z,95369.94
2018-04-08T17:12:39.767Z,95379.50
2018-04-08T17:15:06.505Z,95378.88
2018-04-08T17:17:33.105Z,95384.42
2018-04-08T17:19:59.765Z,95376.59
2018-04-08T17:22:26.435Z,95381.52
2018-04-08T17:24:53.107Z,95385.21
2018-04-08T17:27:22.613Z,95385.55
2018-04-08T17:29:49.212Z,95387.22
2018-04-08T17:32:15.847Z,95395.33
2018-04-08T17:34:42.480Z,95396.46
2018-04-08T17:37:10.986Z,95399.36
2018-04-08T17:39:37.193Z,95394.69
2018-04-08T17:42:02.434Z,95398.22
2018-04-08T17:44:29.181Z,95405.19
2018-04-08T17:46:55.830Z,95414.93
2018-04-08T17:49:22.519Z,95412.28
2018-04-08T17:51:49.268Z,95413.56
2018-04-08T17:54:15.924Z,95426.55
2018-04-08T17:56:42.565Z,95425.30
2018-04-08T17:59:10.586Z,95428.47
2018-04-08T18:01:35.912Z,95437.92
2018-04-08T18:04:02.560Z,95439.58
2018-04-08T18:06:30.171Z,95442.97
2018-04-08T18:08:56.834Z,95444.27
2018-04-08T18:11:23.480Z,95442.08
2018-04-08T18:13:50.118Z,95446.41
2018-04-08T18:16:16.922Z,95447.59
2018-04-08T18:18:43.559Z,95448.36
2018-04-08T18:21:10.242Z,95447.21
2018-04-08T18:23:37.005Z,95451.23
2018-04-08T18:26:03.677Z,95452.13
2018-04-08T18:28:31.441Z,95444.95
2018-04-08T18:30:57.002Z,95453.89
2018-04-08T18:33:23.691Z,95455.91
2018-04-08T18:35:50.353Z,95456.80
2018-04-08T18:38:19.915Z,95461.34
2018-04-08T18:40:46.590Z,95457.97
2018-04-08T18:43:13.269Z,95462.63
2018-04-08T18:45:39.986Z,95455.06
2018-04-08T18:48:06.659Z,95463.89
2018-04-08T18:50:33.332Z,95463.00
2018-04-08T18:52:59.977Z,95461.76
2018-04-08T18:55:26.613Z,95460.38
2018-04-08T18:57:53.300Z,95454.83
2018-04-08T19:00:19.928Z,95459.13
2018-04-08T19:02:46.678Z,95458.62
2018-04-08T19:05:13.293Z,95457.86
2018-04-08T19:07:39.971Z,95461.03
2018-04-08T19:10:06.605Z,95457.34
2018-04-08T19:12:33.315Z,95460.75
2018-04-08T19:14:59.955Z,95462.78
2018-04-08T19:17:26.583Z,95457.48
2018-04-08T19:19:53.257Z,95458.50
2018-04-08T19:22:19.968Z,95459.26
2018-04-08T19:24:46.541Z,95454.22
2018-04-08T19:27:13.273Z,95451.31
2018-04-08T19:29:39.937Z,95458.78
2018-04-08T19:32:06.589Z,95452.20
2018-04-08T19:34:33.218Z,95452.31
2018-04-08T19:37:00.001Z,95454.20
2018-04-08T19:39:26.547Z,95457.64
2018-04-08T19:41:53.269Z,95459.14
2018-04-08T19:44:19.879Z,95458.77
2018-04-08T19:46:46.591Z,95455.64
2018-04-08T19:49:13.227Z,95459.78
2018-04-08T19:51:39.985Z,95458.64
2018-04-08T19:54:06.628Z,95463.33
2018-04-08T19:56:33.288Z,95461.81
2018-04-08T19:58:59.973Z,95458.91
2018-04-08T20:01:26.625Z,95463.44
2018-04-08T20:03:54.678Z,95454.50
2018-04-08T20:06:20.994Z,95459.94
2018-04-08T20:08:47.667Z,95463.33
2018-04-08T20:11:14.392Z,95458.29
2018-04-08T20:13:41.100Z,95460.67
2018-04-08T20:16:07.740Z,95462.20
2018-04-08T20:18:34.353Z,95466.23
2018-04-08T20:21:01.000Z,95464.97
2018-04-08T20:23:27.721Z,95465.50
2018-04-08T20:25:54.389Z,95471.03
2018-04-08T20:28:21.031Z,95463.72
2018-04-08T20:30:50.602Z,95461.95
2018-04-08T20:33:17.385Z,95466.63
2018-04-08T20:35:43.976Z,95468.88
2018-04-08T20:38:10.723Z,95464.98
2018-04-08T20:40:37.348Z,95461.97
2018-04-08T20:43:04.117Z,95461.84
2018-04-08T20:45:30.840Z,95465.99
2018-04-08T20:47:57.578Z,95463.33
2018-04-08T20:50:24.290Z,95467.02
2018-04-08T20:52:50.957Z,95459.08
2018-04-08T20:55:17.640Z,95468.64
2018-04-08T20:57:44.275Z,95466.39
2018-04-08T21:00:11.008Z,95463.12
2018-04-08T21:02:37.644Z,95458.58
2018-04-08T21:05:04.250Z,95459.96
2018-04-08T21:07:30.930Z,95458.43
2018-04-08T21:09:57.533Z,95459.83
2018-04-08T21:12:24.219Z,95458.58
2018-04-08T21:14:50.850Z,95459.70
2018-04-08T21:17:18.865Z,95452.02
2018-04-08T21:19:44.142Z,95451.25
2018-04-08T21:22:10.780Z,95449.25
2018-04-08T21:24:37.431Z,95457.30
2018-04-08T21:27:04.158Z,95452.27
2018-04-08T21:29:30.840Z,95453.03
2018-04-08T21:31:57.468Z,95456.80
2018-04-08T21:34:24.163Z,95452.39
2018-04-08T21:36:50.789Z,95458.83
2018-04-08T21:39:18.870Z,95461.84
2018-04-08T21:41:44.104Z,95461.11
2018-04-08T21:44:10.829Z,95469.80
2018-04-08T21:46:37.481Z,95470.03
2018-04-08T21:49:04.276Z,95468.14
2018-04-08T21:51:30.925Z,95466.63
2018-04-08T21:53:57.570Z,95467.52
2018-04-08T21:56:24.208Z,95462.48
2018-04-08T21:58:50.865Z,95463.75
2018-04-08T22:01:17.940Z,95458.95
2018-04-08T22:03:44.610Z,95463.73
2018-04-08T22:06:11.289Z,95465.63
2018-04-08T22:08:37.966Z,95460.09
2018-04-08T22:11:04.568Z,95455.67
2018-04-08T22:13:32.367Z,95457.20
2018-04-08T22:15:59.003Z,95447.99
2018-04-08T22:18:25.632Z,95449.89
2018-04-08T22:20:52.412Z,95448.50
2018-04-08T22:23:19.054Z,95440.68
2018-04-08T22:25:47.959Z,95447.85
2018-04-08T22:28:14.629Z,95452.78
2018-04-08T22:30:41.396Z,95453.05
2018-04-08T22:33:08.043Z,95446.61
2018-04-08T22:35:34.718Z,95446.72
2018-04-08T22:38:01.352Z,95440.80
2018-04-08T22:40:27.966Z,95437.16
2018-04-08T22:42:54.674Z,95432.49
2018-04-08T22:45:21.353Z,95432.48
2018-04-08T22:47:47.990Z,95430.23
2018-04-08T22:50:14.618Z,95432.88
2018-04-08T22:52:41.326Z,95429.47
2018-04-08T22:55:07.998Z,95426.45
2018-04-08T22:57:34.638Z,95420.14
2018-04-08T23:00:01.272Z,95415.09
2018-04-08T23:02:27.909Z,95414.48
2018-04-08T23:04:54.563Z,95414.38
2018-04-08T23:07:21.232Z,95407.05
2018-04-08T23:09:47.932Z,95408.56
2018-04-08T23:12:17.994Z,95406.94
2018-04-08T23:14:47.590Z,95408.06
2018-04-08T23:17:14.363Z,95395.33
2018-04-08T23:19:41.148Z,95407.68
2018-04-08T23:22:07.647Z,95411.09
2018-04-08T23:24:34.284Z,95408.06
2018-04-08T23:27:00.924Z,95414.22
2018-04-08T23:29:27.634Z,95407.92
2018-04-08T23:31:54.222Z,95408.20
2018-04-08T23:34:20.945Z,95405.52
2018-04-08T23:36:47.697Z,95401.89
2018-04-08T23:39:14.336Z,95403.91
2018-04-08T23:41:41.000Z,95397.83
2018-04-08T23:44:08.985Z,95393.30
2018-04-08T23:46:34.348Z,95406.28
2018-04-08T23:49:01.023Z,95400.09
2018-04-08T23:51:27.647Z,95405.78
2018-04-08T23:53:54.285Z,95401.23
2018-04-08T23:56:20.928Z,95399.59
2018-04-08T23:58:49.528Z,95399.70
